^^
Station Historical Data
Daily Summary for August 9, 2017 Units:  Both    English   Metric
« Previous Day
Next Day »
Daily Weekly Monthly Yearly Custom
  High: Low: Average:
Temperature: 77.7 °F /  25.4 °C 44.6 °F /  7 °C 59.9 °F /  15.5 °C
Dew Point: 21.4 °F /  -5.9 °C 15.6 °F /  -9.1 °C 18.4 °F /  -7.6 °C
Humidity: 33% 10% 22%
Wind Speed: 6.0mph /  9.7km/h - 0.6mph /  1km/h
Wind Gust: 8.0mph /  12.9km/h - -
Wind- - South
Pressure: 30.40 in /  1029.3 hPa 30.29 in /  1025.6 hPa -
Precipitation: 0.00 in /  0 mm    
Historical Graphs
 
 
Tabular Data for August 9, 2017
Time Temperature Dew Point Pressure Wind Wind Speed Wind Gust Humidity Rainfall Rate (Hourly) solar Conditions
00:00 50.5 °F /  10.3 °C 16.0 °F /  -8.9 °C 30.35in /  1027.7hPa Calm   5.0mph /  8km/h 25% 0.00in /  0mm 0.0 W/m2
00:07 50.7 °F /  10.4 °C 16.2 °F /  -8.8 °C 30.35in /  1027.7hPa ESE 2.0mph /  3.2km/h 6.0mph /  9.7km/h 25% 0.00in /  0mm 0.0 W/m2
00:13 50.7 °F /  10.4 °C 16.2 °F /  -8.8 °C 30.35in /  1027.7hPa Calm   4.0mph /  6.4km/h 25% 0.00in /  0mm 0.0 W/m2
00:19 50.5 °F /  10.3 °C 16.9 °F /  -8.4 °C 30.35in /  1027.7hPa Calm   5.0mph /  8km/h 26% 0.00in /  0mm 0.0 W/m2
00:25 50.4 °F /  10.2 °C 16.7 °F /  -8.5 °C 30.35in /  1027.7hPa Calm   2.0mph /  3.2km/h 26% 0.00in /  0mm 0.0 W/m2
00:31 50.2 °F /  10.1 °C 16.5 °F /  -8.6 °C 30.35in /  1027.7hPa Calm   1.0mph /  1.6km/h 26% 0.00in /  0mm 0.0 W/m2
00:37 49.8 °F /  9.9 °C 16.3 °F /  -8.7 °C 30.35in /  1027.7hPa Calm   3.0mph /  4.8km/h 26% 0.00in /  0mm 0.0 W/m2
00:44 49.6 °F /  9.8 °C 16.2 °F /  -8.8 °C 30.35in /  1027.7hPa Calm   3.0mph /  4.8km/h 26% 0.00in /  0mm 0.0 W/m2
00:50 49.3 °F /  9.6 °C 16.7 °F /  -8.5 °C 30.35in /  1027.7hPa Calm   2.0mph /  3.2km/h 27% 0.00in /  0mm 0.0 W/m2
00:56 49.3 °F /  9.6 °C 16.7 °F /  -8.5 °C 30.35in /  1027.7hPa Calm   2.0mph /  3.2km/h 27% 0.00in /  0mm 0.0 W/m2
01:02 48.9 °F /  9.4 °C 16.3 °F /  -8.7 °C 30.35in /  1027.7hPa East 0.9mph /  1.4km/h 1.0mph /  1.6km/h 27% 0.00in /  0mm 0.0 W/m2
01:08 48.9 °F /  9.4 °C 16.3 °F /  -8.7 °C 30.35in /  1027.7hPa Calm     27% 0.00in /  0mm 0.0 W/m2
01:14 48.2 °F /  9 °C 16.5 °F /  -8.6 °C 30.35in /  1027.7hPa Calm     28% 0.00in /  0mm 0.0 W/m2
01:20 47.7 °F /  8.7 °C 16.9 °F /  -8.4 °C 30.34in /  1027.3hPa Calm     29% 0.00in /  0mm 0.0 W/m2
01:26 47.1 °F /  8.4 °C 17.2 °F /  -8.2 °C 30.34in /  1027.3hPa Calm     30% 0.00in /  0mm 0.0 W/m2
01:32 46.8 °F /  8.2 °C 16.9 °F /  -8.4 °C 30.34in /  1027.3hPa Calm     30% 0.00in /  0mm 0.0 W/m2
01:39 46.6 °F /  8.1 °C 16.9 °F /  -8.4 °C 30.34in /  1027.3hPa Calm     30% 0.00in /  0mm 0.0 W/m2
01:45 46.6 °F /  8.1 °C 16.9 °F /  -8.4 °C 30.33in /  1027hPa Calm     30% 0.00in /  0mm 0.0 W/m2
01:51 46.8 °F /  8.2 °C 16.2 °F /  -8.8 °C 30.33in /  1027hPa Calm   3.0mph /  4.8km/h 29% 0.00in /  0mm 0.0 W/m2
01:57 47.1 °F /  8.4 °C 16.5 °F /  -8.6 °C 30.33in /  1027hPa Calm   1.0mph /  1.6km/h 29% 0.00in /  0mm 0.0 W/m2
02:03 47.5 °F /  8.6 °C 16.9 °F /  -8.4 °C 30.33in /  1027hPa Calm   1.0mph /  1.6km/h 29% 0.00in /  0mm 0.0 W/m2
02:09 47.5 °F /  8.6 °C 17.6 °F /  -8 °C 30.33in /  1027hPa Calm     30% 0.00in /  0mm 0.0 W/m2
02:15 47.1 °F /  8.4 °C 17.2 °F /  -8.2 °C 30.33in /  1027hPa Calm     30% 0.00in /  0mm 0.0 W/m2
02:22 46.8 °F /  8.2 °C 16.9 °F /  -8.4 °C 30.33in /  1027hPa Calm   1.0mph /  1.6km/h 30% 0.00in /  0mm 0.0 W/m2
02:28 46.6 °F /  8.1 °C 16.9 °F /  -8.4 °C 30.33in /  1027hPa ENE 0.9mph /  1.4km/h 2.0mph /  3.2km/h 30% 0.00in /  0mm 0.0 W/m2
02:34 46.2 °F /  7.9 °C 17.2 °F /  -8.2 °C 30.33in /  1027hPa Calm     31% 0.00in /  0mm 0.0 W/m2
02:40 46.2 °F /  7.9 °C 17.2 °F /  -8.2 °C 30.33in /  1027hPa Calm     31% 0.00in /  0mm 0.0 W/m2
02:46 46.4 °F /  8 °C 16.7 °F /  -8.5 °C 30.35in /  1027.7hPa Calm   6.0mph /  9.7km/h 30% 0.00in /  0mm 0.0 W/m2
02:52 46.2 °F /  7.9 °C 16.5 °F /  -8.6 °C 30.35in /  1027.7hPa East 0.9mph /  1.4km/h 5.0mph /  8km/h 30% 0.00in /  0mm 0.0 W/m2
02:58 46.2 °F /  7.9 °C 17.2 °F /  -8.2 °C 30.35in /  1027.7hPa Calm   2.0mph /  3.2km/h 31% 0.00in /  0mm 0.0 W/m2
03:05 46.0 °F /  7.8 °C 17.1 °F /  -8.3 °C 30.35in /  1027.7hPa Calm   1.0mph /  1.6km/h 31% 0.00in /  0mm 0.0 W/m2
03:11 46.2 °F /  7.9 °C 17.2 °F /  -8.2 °C 30.34in /  1027.3hPa Calm   1.0mph /  1.6km/h 31% 0.00in /  0mm 0.0 W/m2
03:17 46.2 °F /  7.9 °C 17.2 °F /  -8.2 °C 30.35in /  1027.7hPa ENE 2.9mph /  4.7km/h 6.0mph /  9.7km/h 31% 0.00in /  0mm 0.0 W/m2
03:23 46.4 °F /  8 °C 16.7 °F /  -8.5 °C 30.34in /  1027.3hPa Calm   4.0mph /  6.4km/h 30% 0.00in /  0mm 0.0 W/m2
03:29 46.2 °F /  7.9 °C 16.5 °F /  -8.6 °C 30.35in /  1027.7hPa Calm   3.0mph /  4.8km/h 30% 0.00in /  0mm 0.0 W/m2
03:35 46.0 °F /  7.8 °C 17.1 °F /  -8.3 °C 30.35in /  1027.7hPa Calm   3.0mph /  4.8km/h 31% 0.00in /  0mm 0.0 W/m2
03:41 46.0 °F /  7.8 °C 17.1 °F /  -8.3 °C 30.34in /  1027.3hPa Calm   4.0mph /  6.4km/h 31% 0.00in /  0mm 0.0 W/m2
03:48 46.6 °F /  8.1 °C 17.6 °F /  -8 °C 30.34in /  1027.3hPa ENE 0.9mph /  1.4km/h 4.0mph /  6.4km/h 31% 0.00in /  0mm 0.0 W/m2
03:54 46.9 °F /  8.3 °C 17.8 °F /  -7.9 °C 30.34in /  1027.3hPa East 0.9mph /  1.4km/h 1.0mph /  1.6km/h 31% 0.00in /  0mm 0.0 W/m2
04:00 47.1 °F /  8.4 °C 17.2 °F /  -8.2 °C 30.34in /  1027.3hPa Calm   3.0mph /  4.8km/h 30% 0.00in /  0mm 0.0 W/m2
04:06 47.1 °F /  8.4 °C 17.2 °F /  -8.2 °C 30.34in /  1027.3hPa Calm   2.0mph /  3.2km/h 30% 0.00in /  0mm 0.0 W/m2
04:16 46.8 °F /  8.2 °C 16.9 °F /  -8.4 °C 30.34in /  1027.3hPa Calm   1.0mph /  1.6km/h 30% 0.00in /  0mm 0.0 W/m2
04:22 46.8 °F /  8.2 °C 16.9 °F /  -8.4 °C 30.34in /  1027.3hPa Calm   1.0mph /  1.6km/h 30% 0.00in /  0mm 0.0 W/m2
04:26 46.6 °F /  8.1 °C 16.9 °F /  -8.4 °C 30.34in /  1027.3hPa SE 0.9mph /  1.4km/h 2.0mph /  3.2km/h 30% 0.00in /  0mm 0.0 W/m2
04:32 46.4 °F /  8 °C 17.4 °F /  -8.1 °C 30.34in /  1027.3hPa Calm   1.0mph /  1.6km/h 31% 0.00in /  0mm 0.0 W/m2
04:39 46.2 °F /  7.9 °C 17.2 °F /  -8.2 °C 30.35in /  1027.7hPa Calm     31% 0.00in /  0mm 0.0 W/m2
04:45 46.0 °F /  7.8 °C 17.1 °F /  -8.3 °C 30.35in /  1027.7hPa Calm     31% 0.00in /  0mm 0.0 W/m2
04:51 45.9 °F /  7.7 °C 17.6 °F /  -8 °C 30.35in /  1027.7hPa Calm   2.0mph /  3.2km/h 32% 0.00in /  0mm 0.0 W/m2
04:55 45.7 °F /  7.6 °C 17.4 °F /  -8.1 °C 30.35in /  1027.7hPa Calm     32% 0.00in /  0mm 0.0 W/m2
04:57 45.7 °F /  7.6 °C 16.7 °F /  -8.5 °C 30.35in /  1027.7hPa Calm     31% 0.00in /  0mm 0.0 W/m2
05:03 45.3 °F /  7.4 °C 18.0 °F /  -7.8 °C 30.35in /  1027.7hPa Calm   1.0mph /  1.6km/h 33% 0.00in /  0mm 0.0 W/m2
05:09 45.0 °F /  7.2 °C 16.9 °F /  -8.4 °C 30.35in /  1027.7hPa Calm   1.0mph /  1.6km/h 32% 0.00in /  0mm 0.0 W/m2
05:15 44.8 °F /  7.1 °C 16.7 °F /  -8.5 °C 30.35in /  1027.7hPa East 2.0mph /  3.2km/h 2.0mph /  3.2km/h 32% 0.00in /  0mm 0.0 W/m2
05:22 44.6 °F /  7 °C 16.5 °F /  -8.6 °C 30.35in /  1027.7hPa Calm     32% 0.00in /  0mm 0.0 W/m2
05:28 44.8 °F /  7.1 °C 16.7 °F /  -8.5 °C 30.35in /  1027.7hPa Calm     32% 0.00in /  0mm 0.0 W/m2
05:34 44.8 °F /  7.1 °C 16.7 °F /  -8.5 °C 30.36in /  1028hPa ENE 4.0mph /  6.4km/h 4.0mph /  6.4km/h 32% 0.00in /  0mm 0.0 W/m2
05:40 45.1 °F /  7.3 °C 17.1 °F /  -8.3 °C 30.37in /  1028.3hPa ENE 2.0mph /  3.2km/h 7.0mph /  11.3km/h 32% 0.00in /  0mm 0.0 W/m2
05:46 45.7 °F /  7.6 °C 16.7 °F /  -8.5 °C 30.37in /  1028.3hPa East 0.9mph /  1.4km/h 5.0mph /  8km/h 31% 0.00in /  0mm 0.0 W/m2
05:52 45.9 °F /  7.7 °C 16.9 °F /  -8.4 °C 30.37in /  1028.3hPa ENE 2.0mph /  3.2km/h 4.0mph /  6.4km/h 31% 0.00in /  0mm 0.0 W/m2
05:58 45.9 °F /  7.7 °C 16.9 °F /  -8.4 °C 30.37in /  1028.3hPa Calm     31% 0.00in /  0mm 0.0 W/m2
06:04 45.9 °F /  7.7 °C 16.9 °F /  -8.4 °C 30.37in /  1028.3hPa Calm     31% 0.00in /  0mm 0.0 W/m2
06:10 45.7 °F /  7.6 °C 18.1 °F /  -7.7 °C 30.38in /  1028.7hPa Calm     33% 0.00in /  0mm 0.0 W/m2
06:17 45.5 °F /  7.5 °C 18.1 °F /  -7.7 °C 30.38in /  1028.7hPa Calm     33% 0.00in /  0mm 0.0 W/m2
06:23 45.5 °F /  7.5 °C 17.4 °F /  -8.1 °C 30.38in /  1028.7hPa Calm   1.0mph /  1.6km/h 32% 0.00in /  0mm 0.0 W/m2
06:29 45.7 °F /  7.6 °C 18.1 °F /  -7.7 °C 30.38in /  1028.7hPa Calm     33% 0.00in /  0mm 7.0 W/m2
06:35 45.7 °F /  7.6 °C 17.4 °F /  -8.1 °C 30.38in /  1028.7hPa Calm   1.0mph /  1.6km/h 32% 0.00in /  0mm 9.0 W/m2
06:41 45.7 °F /  7.6 °C 17.4 °F /  -8.1 °C 30.38in /  1028.7hPa Calm     32% 0.00in /  0mm 12.0 W/m2
06:47 45.7 °F /  7.6 °C 18.1 °F /  -7.7 °C 30.38in /  1028.7hPa Calm     33% 0.00in /  0mm 14.0 W/m2
06:53 45.7 °F /  7.6 °C 18.1 °F /  -7.7 °C 30.38in /  1028.7hPa Calm     33% 0.00in /  0mm 16.0 W/m2
06:59 45.9 °F /  7.7 °C 17.6 °F /  -8 °C 30.38in /  1028.7hPa Calm     32% 0.00in /  0mm 18.0 W/m2
07:05 46.4 °F /  8 °C 18.1 °F /  -7.7 °C 30.38in /  1028.7hPa Calm     32% 0.00in /  0mm 18.0 W/m2
07:12 46.8 °F /  8.2 °C 18.5 °F /  -7.5 °C 30.39in /  1029hPa Calm   1.0mph /  1.6km/h 32% 0.00in /  0mm 19.0 W/m2
07:18 47.1 °F /  8.4 °C 18.0 °F /  -7.8 °C 30.38in /  1028.7hPa Calm   3.0mph /  4.8km/h 31% 0.00in /  0mm 21.0 W/m2
07:24 47.7 °F /  8.7 °C 18.5 °F /  -7.5 °C 30.39in /  1029hPa Calm     31% 0.00in /  0mm 23.0 W/m2
07:30 48.4 °F /  9.1 °C 18.3 °F /  -7.6 °C 30.39in /  1029hPa Calm     30% 0.00in /  0mm 25.0 W/m2
07:36 48.9 °F /  9.4 °C 20.3 °F /  -6.5 °C 30.39in /  1029hPa Calm   1.0mph /  1.6km/h 32% 0.00in /  0mm 25.0 W/m2
07:42 49.5 °F /  9.7 °C 19.2 °F /  -7.1 °C 30.39in /  1029hPa Calm     30% 0.00in /  0mm 26.0 W/m2
07:48 50.2 °F /  10.1 °C 19.9 °F /  -6.7 °C 30.39in /  1029hPa Calm     30% 0.00in /  0mm 28.0 W/m2
07:55 50.5 °F /  10.3 °C 20.3 °F /  -6.5 °C 30.39in /  1029hPa Calm     30% 0.00in /  0mm 28.0 W/m2
08:01 51.3 °F /  10.7 °C 20.1 °F /  -6.6 °C 30.39in /  1029hPa Calm     29% 0.00in /  0mm 28.0 W/m2
08:07 51.8 °F /  11 °C 19.8 °F /  -6.8 °C 30.39in /  1029hPa Calm     28% 0.00in /  0mm 30.0 W/m2
08:13 52.7 °F /  11.5 °C 21.4 °F /  -5.9 °C 30.40in /  1029.3hPa Calm     29% 0.00in /  0mm 32.0 W/m2
08:19 54.1 °F /  12.3 °C 19.9 °F /  -6.7 °C 30.40in /  1029.3hPa Calm   1.0mph /  1.6km/h 26% 0.00in /  0mm 32.0 W/m2
08:25 55.9 °F /  13.3 °C 19.6 °F /  -6.9 °C 30.40in /  1029.3hPa Calm     24% 0.00in /  0mm 42.0 W/m2
08:31 57.7 °F /  14.3 °C 19.2 °F /  -7.1 °C 30.40in /  1029.3hPa Calm     22% 0.00in /  0mm 431.0 W/m2
08:38 60.3 °F /  15.7 °C 19.0 °F /  -7.2 °C 30.40in /  1029.3hPa Calm   2.0mph /  3.2km/h 20% 0.00in /  0mm 455.0 W/m2
08:44 62.4 °F /  16.9 °C 19.6 °F /  -6.9 °C 30.40in /  1029.3hPa Calm   1.0mph /  1.6km/h 19% 0.00in /  0mm 473.0 W/m2
08:50 64.2 °F /  17.9 °C 19.8 °F /  -6.8 °C 30.40in /  1029.3hPa Calm     18% 0.00in /  0mm 492.0 W/m2
08:56 65.1 °F /  18.4 °C 20.5 °F /  -6.4 °C 30.40in /  1029.3hPa Calm   1.0mph /  1.6km/h 18% 0.00in /  0mm 512.0 W/m2
09:02 66.6 °F /  19.2 °C 20.3 °F /  -6.5 °C 30.39in /  1029hPa Calm   3.0mph /  4.8km/h 17% 0.00in /  0mm 529.0 W/m2
09:08 67.6 °F /  19.8 °C 19.8 °F /  -6.8 °C 30.40in /  1029.3hPa NW 2.0mph /  3.2km/h 4.0mph /  6.4km/h 16% 0.00in /  0mm 548.0 W/m2
09:14 68.4 °F /  20.2 °C 20.5 °F /  -6.4 °C 30.39in /  1029hPa NNW 4.0mph /  6.4km/h 4.0mph /  6.4km/h 16% 0.00in /  0mm 568.0 W/m2
09:20 69.3 °F /  20.7 °C 19.6 °F /  -6.9 °C 30.40in /  1029.3hPa Calm   3.0mph /  4.8km/h 15% 0.00in /  0mm 584.0 W/m2
09:33 70.3 °F /  21.3 °C 18.9 °F /  -7.3 °C 30.39in /  1029hPa NNE 4.0mph /  6.4km/h 4.0mph /  6.4km/h 14% 0.00in /  0mm 615.0 W/m2
09:39 71.1 °F /  21.7 °C 19.4 °F /  -7 °C 30.39in /  1029hPa Calm   6.0mph /  9.7km/h 14% 0.00in /  0mm 628.0 W/m2
09:45 71.2 °F /  21.8 °C 19.6 °F /  -6.9 °C 30.39in /  1029hPa Calm     14% 0.00in /  0mm 643.0 W/m2
09:51 71.8 °F /  22.1 °C 18.3 °F /  -7.6 °C 30.39in /  1029hPa North 2.9mph /  4.7km/h 5.0mph /  8km/h 13% 0.00in /  0mm 656.0 W/m2
09:57 72.0 °F /  22.2 °C 18.5 °F /  -7.5 °C 30.39in /  1029hPa Calm   2.0mph /  3.2km/h 13% 0.00in /  0mm 664.0 W/m2
10:03 72.3 °F /  22.4 °C 18.7 °F /  -7.4 °C 30.39in /  1029hPa Calm   2.0mph /  3.2km/h 13% 0.00in /  0mm 679.0 W/m2
10:10 72.9 °F /  22.7 °C 19.2 °F /  -7.1 °C 30.39in /  1029hPa Calm   1.0mph /  1.6km/h 13% 0.00in /  0mm 691.0 W/m2
10:16 73.4 °F /  23 °C 19.6 °F /  -6.9 °C 30.38in /  1028.7hPa Calm   3.0mph /  4.8km/h 13% 0.00in /  0mm 705.0 W/m2
10:22 73.8 °F /  23.2 °C 19.8 °F /  -6.8 °C 30.38in /  1028.7hPa West 2.0mph /  3.2km/h 5.0mph /  8km/h 13% 0.00in /  0mm 715.0 W/m2
10:28 73.0 °F /  22.8 °C 21.0 °F /  -6.1 °C 30.38in /  1028.7hPa Calm   2.0mph /  3.2km/h 14% 0.00in /  0mm 726.0 W/m2
10:34 73.0 °F /  22.8 °C 19.2 °F /  -7.1 °C 30.38in /  1028.7hPa Calm   3.0mph /  4.8km/h 13% 0.00in /  0mm 731.0 W/m2
10:40 73.8 °F /  23.2 °C 19.8 °F /  -6.8 °C 30.38in /  1028.7hPa Calm   4.0mph /  6.4km/h 13% 0.00in /  0mm 740.0 W/m2
10:46 74.1 °F /  23.4 °C 18.3 °F /  -7.6 °C 30.38in /  1028.7hPa Calm   2.0mph /  3.2km/h 12% 0.00in /  0mm 749.0 W/m2
10:52 74.7 °F /  23.7 °C 18.7 °F /  -7.4 °C 30.38in /  1028.7hPa WNW 4.9mph /  7.9km/h 7.0mph /  11.3km/h 12% 0.00in /  0mm 758.0 W/m2
10:59 74.5 °F /  23.6 °C 18.5 °F /  -7.5 °C 30.37in /  1028.3hPa Calm   2.0mph /  3.2km/h 12% 0.00in /  0mm 759.0 W/m2
11:07 74.1 °F /  23.4 °C 18.3 °F /  -7.6 °C 30.37in /  1028.3hPa Calm   1.0mph /  1.6km/h 12% 0.00in /  0mm 766.0 W/m2
11:13 74.5 °F /  23.6 °C 18.5 °F /  -7.5 °C 30.37in /  1028.3hPa NNW 6.0mph /  9.7km/h 7.0mph /  11.3km/h 12% 0.00in /  0mm 777.0 W/m2
11:19 74.8 °F /  23.8 °C 18.9 °F /  -7.3 °C 30.36in /  1028hPa NW 2.9mph /  4.7km/h 3.0mph /  4.8km/h 12% 0.00in /  0mm 779.0 W/m2
11:25 75.2 °F /  24 °C 19.0 °F /  -7.2 °C 30.36in /  1028hPa Calm   5.0mph /  8km/h 12% 0.00in /  0mm 786.0 W/m2
11:31 75.6 °F /  24.2 °C 19.4 °F /  -7 °C 30.36in /  1028hPa Calm   2.0mph /  3.2km/h 12% 0.00in /  0mm 784.0 W/m2
11:37 75.9 °F /  24.4 °C 19.6 °F /  -6.9 °C 30.36in /  1028hPa SW 2.9mph /  4.7km/h 7.0mph /  11.3km/h 12% 0.00in /  0mm 782.0 W/m2
11:43 75.7 °F /  24.3 °C 19.6 °F /  -6.9 °C 30.36in /  1028hPa NNW 2.9mph /  4.7km/h 7.0mph /  11.3km/h 12% 0.00in /  0mm 782.0 W/m2
11:50 75.6 °F /  24.2 °C 19.4 °F /  -7 °C 30.36in /  1028hPa NW 2.0mph /  3.2km/h 5.0mph /  8km/h 12% 0.00in /  0mm 773.0 W/m2
11:56 75.6 °F /  24.2 °C 19.4 °F /  -7 °C 30.35in /  1027.7hPa SSW 0.9mph /  1.4km/h 5.0mph /  8km/h 12% 0.00in /  0mm 789.0 W/m2
12:02 75.4 °F /  24.1 °C 19.2 °F /  -7.1 °C 30.35in /  1027.7hPa NW 0.9mph /  1.4km/h 6.0mph /  9.7km/h 12% 0.00in /  0mm 788.0 W/m2
12:08 75.7 °F /  24.3 °C 19.6 °F /  -6.9 °C 30.35in /  1027.7hPa Calm   4.0mph /  6.4km/h 12% 0.00in /  0mm 788.0 W/m2
12:14 76.1 °F /  24.5 °C 19.8 °F /  -6.8 °C 30.35in /  1027.7hPa North 4.0mph /  6.4km/h 5.0mph /  8km/h 12% 0.00in /  0mm 782.0 W/m2
12:20 76.5 °F /  24.7 °C 20.1 °F /  -6.6 °C 30.35in /  1027.7hPa Calm   5.0mph /  8km/h 12% 0.00in /  0mm 782.0 W/m2
12:26 76.6 °F /  24.8 °C 20.3 °F /  -6.5 °C 30.34in /  1027.3hPa SW 0.9mph /  1.4km/h 3.0mph /  4.8km/h 12% 0.00in /  0mm 773.0 W/m2
12:32 76.3 °F /  24.6 °C 19.9 °F /  -6.7 °C 30.34in /  1027.3hPa NNW 4.0mph /  6.4km/h 7.0mph /  11.3km/h 12% 0.00in /  0mm 777.0 W/m2
12:42 76.3 °F /  24.6 °C 18.0 °F /  -7.8 °C 30.34in /  1027.3hPa WNW 0.9mph /  1.4km/h 1.0mph /  1.6km/h 11% 0.00in /  0mm 770.0 W/m2
12:48 76.5 °F /  24.7 °C 18.0 °F /  -7.8 °C 30.34in /  1027.3hPa WSW 2.9mph /  4.7km/h 8.0mph /  12.9km/h 11% 0.00in /  0mm 759.0 W/m2
12:54 76.3 °F /  24.6 °C 18.0 °F /  -7.8 °C 30.33in /  1027hPa WSW 0.9mph /  1.4km/h 4.0mph /  6.4km/h 11% 0.00in /  0mm 758.0 W/m2
13:04 76.3 °F /  24.6 °C 18.0 °F /  -7.8 °C 30.33in /  1027hPa NNW 2.0mph /  3.2km/h 3.0mph /  4.8km/h 11% 0.00in /  0mm 747.0 W/m2
13:10 76.5 °F /  24.7 °C 15.8 °F /  -9 °C 30.33in /  1027hPa NNW 0.9mph /  1.4km/h 6.0mph /  9.7km/h 10% 0.00in /  0mm 735.0 W/m2
13:16 76.3 °F /  24.6 °C 15.6 °F /  -9.1 °C 30.32in /  1026.6hPa Calm   5.0mph /  8km/h 10% 0.00in /  0mm 728.0 W/m2
13:21 76.3 °F /  24.6 °C 18.0 °F /  -7.8 °C 30.32in /  1026.6hPa WSW 2.9mph /  4.7km/h 3.0mph /  4.8km/h 11% 0.00in /  0mm 722.0 W/m2
13:27 76.5 °F /  24.7 °C 18.0 °F /  -7.8 °C 30.32in /  1026.6hPa Calm   6.0mph /  9.7km/h 11% 0.00in /  0mm 714.0 W/m2
13:32 76.6 °F /  24.8 °C 16.0 °F /  -8.9 °C 30.32in /  1026.6hPa Calm   5.0mph /  8km/h 10% 0.00in /  0mm 707.0 W/m2
13:38 77.0 °F /  25 °C 16.3 °F /  -8.7 °C 30.31in /  1026.3hPa NNW 4.9mph /  7.9km/h 5.0mph /  8km/h 10% 0.00in /  0mm 686.0 W/m2
13:44 77.2 °F /  25.1 °C 16.3 °F /  -8.7 °C 30.31in /  1026.3hPa Calm   4.0mph /  6.4km/h 10% 0.00in /  0mm 675.0 W/m2
13:50 76.5 °F /  24.7 °C 18.0 °F /  -7.8 °C 30.31in /  1026.3hPa Calm   3.0mph /  4.8km/h 11% 0.00in /  0mm 661.0 W/m2
14:01 77.2 °F /  25.1 °C 18.7 °F /  -7.4 °C 30.30in /  1026hPa Calm   5.0mph /  8km/h 11% 0.00in /  0mm 638.0 W/m2
14:07 77.5 °F /  25.3 °C 18.9 °F /  -7.3 °C 30.30in /  1026hPa North 2.9mph /  4.7km/h 4.0mph /  6.4km/h 11% 0.00in /  0mm 622.0 W/m2
14:13 77.4 °F /  25.2 °C 18.7 °F /  -7.4 °C 30.30in /  1026hPa Calm   1.0mph /  1.6km/h 11% 0.00in /  0mm 603.0 W/m2
14:19 77.4 °F /  25.2 °C 18.7 °F /  -7.4 °C 30.30in /  1026hPa Calm   1.0mph /  1.6km/h 11% 0.00in /  0mm 592.0 W/m2
14:25 77.2 °F /  25.1 °C 18.7 °F /  -7.4 °C 30.29in /  1025.6hPa NNW 2.9mph /  4.7km/h 3.0mph /  4.8km/h 11% 0.00in /  0mm 573.0 W/m2
14:31 77.4 °F /  25.2 °C 18.7 °F /  -7.4 °C 30.29in /  1025.6hPa NW 4.0mph /  6.4km/h 7.0mph /  11.3km/h 11% 0.00in /  0mm 561.0 W/m2
14:37 77.7 °F /  25.4 °C 19.0 °F /  -7.2 °C 30.30in /  1026hPa NNW 6.0mph /  9.7km/h 8.0mph /  12.9km/h 11% 0.00in /  0mm 541.0 W/m2
14:43 77.7 °F /  25.4 °C 16.9 °F /  -8.4 °C 30.30in /  1026hPa NE 2.0mph /  3.2km/h 3.0mph /  4.8km/h 10% 0.00in /  0mm 520.0 W/m2
14:49 77.5 °F /  25.3 °C 18.9 °F /  -7.3 °C 30.30in /  1026hPa East 4.0mph /  6.4km/h 5.0mph /  8km/h 11% 0.00in /  0mm 503.0 W/m2
14:56 77.7 °F /  25.4 °C 21.0 °F /  -6.1 °C 30.30in /  1026hPa East 0.9mph /  1.4km/h 4.0mph /  6.4km/h 12% 0.00in /  0mm 489.0 W/m2
15:02 77.4 °F /  25.2 °C 18.7 °F /  -7.4 °C 30.29in /  1025.6hPa Calm   3.0mph /  4.8km/h 11% 0.00in /  0mm 464.0 W/m2
15:08 77.2 °F /  25.1 °C 18.7 °F /  -7.4 °C 30.29in /  1025.6hPa SE 0.9mph /  1.4km/h 2.0mph /  3.2km/h 11% 0.00in /  0mm 446.0 W/m2
15:14 77.2 °F /  25.1 °C 18.7 °F /  -7.4 °C 30.29in /  1025.6hPa Calm   4.0mph /  6.4km/h 11% 0.00in /  0mm 427.0 W/m2
15:20 77.4 °F /  25.2 °C 18.7 °F /  -7.4 °C 30.29in /  1025.6hPa Calm   3.0mph /  4.8km/h 11% 0.00in /  0mm 410.0 W/m2
15:26 77.4 °F /  25.2 °C 18.7 °F /  -7.4 °C 30.29in /  1025.6hPa Calm   2.0mph /  3.2km/h 11% 0.00in /  0mm 380.0 W/m2
15:32 77.5 °F /  25.3 °C 20.8 °F /  -6.2 °C 30.29in /  1025.6hPa Calm   4.0mph /  6.4km/h 12% 0.00in /  0mm 345.0 W/m2
15:39 77.5 °F /  25.3 °C 18.9 °F /  -7.3 °C 30.29in /  1025.6hPa North 0.9mph /  1.4km/h 4.0mph /  6.4km/h 11% 0.00in /  0mm 348.0 W/m2
15:45 77.2 °F /  25.1 °C 18.7 °F /  -7.4 °C 30.29in /  1025.6hPa NNE 2.0mph /  3.2km/h 5.0mph /  8km/h 11% 0.00in /  0mm 325.0 W/m2
15:51 76.6 °F /  24.8 °C 18.1 °F /  -7.7 °C 30.29in /  1025.6hPa NNW 4.9mph /  7.9km/h 5.0mph /  8km/h 11% 0.00in /  0mm 304.0 W/m2
15:57 76.3 °F /  24.6 °C 18.0 °F /  -7.8 °C 30.29in /  1025.6hPa Calm   4.0mph /  6.4km/h 11% 0.00in /  0mm 49.0 W/m2
16:03 75.7 °F /  24.3 °C 17.4 °F /  -8.1 °C 30.29in /  1025.6hPa NNW 4.0mph /  6.4km/h 4.0mph /  6.4km/h 11% 0.00in /  0mm 44.0 W/m2
16:09 75.6 °F /  24.2 °C 17.4 °F /  -8.1 °C 30.29in /  1025.6hPa Calm   2.0mph /  3.2km/h 11% 0.00in /  0mm 42.0 W/m2
16:16 75.4 °F /  24.1 °C 17.2 °F /  -8.2 °C 30.29in /  1025.6hPa NNE 2.0mph /  3.2km/h 3.0mph /  4.8km/h 11% 0.00in /  0mm 42.0 W/m2
16:22 75.0 °F /  23.9 °C 19.0 °F /  -7.2 °C 30.29in /  1025.6hPa Calm   1.0mph /  1.6km/h 12% 0.00in /  0mm 49.0 W/m2
16:28 74.8 °F /  23.8 °C 16.9 °F /  -8.4 °C 30.29in /  1025.6hPa Calm   2.0mph /  3.2km/h 11% 0.00in /  0mm 58.0 W/m2
16:34 74.5 °F /  23.6 °C 20.5 °F /  -6.4 °C 30.29in /  1025.6hPa WNW 2.0mph /  3.2km/h 4.0mph /  6.4km/h 13% 0.00in /  0mm 39.0 W/m2
16:40 74.1 °F /  23.4 °C 18.3 °F /  -7.6 °C 30.29in /  1025.6hPa WSW 2.0mph /  3.2km/h 2.0mph /  3.2km/h 12% 0.00in /  0mm 35.0 W/m2
16:46 73.8 °F /  23.2 °C 19.8 °F /  -6.8 °C 30.29in /  1025.6hPa Calm   2.0mph /  3.2km/h 13% 0.00in /  0mm 35.0 W/m2
16:52 73.6 °F /  23.1 °C 17.8 °F /  -7.9 °C 30.29in /  1025.6hPa Calm     12% 0.00in /  0mm 26.0 W/m2
16:58 73.2 °F /  22.9 °C 17.6 °F /  -8 °C 30.29in /  1025.6hPa Calm     12% 0.00in /  0mm 32.0 W/m2
17:04 73.0 °F /  22.8 °C 19.2 °F /  -7.1 °C 30.30in /  1026hPa NE 2.0mph /  3.2km/h 2.0mph /  3.2km/h 13% 0.00in /  0mm 25.0 W/m2
17:11 72.7 °F /  22.6 °C 19.0 °F /  -7.2 °C 30.30in /  1026hPa NNW 2.0mph /  3.2km/h 2.0mph /  3.2km/h 13% 0.00in /  0mm 21.0 W/m2
17:17 72.3 °F /  22.4 °C 18.7 °F /  -7.4 °C 30.30in /  1026hPa Calm   3.0mph /  4.8km/h 13% 0.00in /  0mm 18.0 W/m2
17:23 71.8 °F /  22.1 °C 19.9 °F /  -6.7 °C 30.30in /  1026hPa Calm     14% 0.00in /  0mm 11.0 W/m2
17:29 71.2 °F /  21.8 °C 19.6 °F /  -6.9 °C 30.30in /  1026hPa Calm     14% 0.00in /  0mm 7.0 W/m2
17:35 70.7 °F /  21.5 °C 19.2 °F /  -7.1 °C 30.30in /  1026hPa NNE 2.0mph /  3.2km/h 3.0mph /  4.8km/h 14% 0.00in /  0mm 0.0 W/m2
17:41 70.2 °F /  21.2 °C 18.7 °F /  -7.4 °C 30.30in /  1026hPa Calm   2.0mph /  3.2km/h 14% 0.00in /  0mm 0.0 W/m2
17:47 69.6 °F /  20.9 °C 19.9 °F /  -6.7 °C 30.31in /  1026.3hPa Calm   1.0mph /  1.6km/h 15% 0.00in /  0mm 0.0 W/m2
17:54 69.1 °F /  20.6 °C 19.4 °F /  -7 °C 30.31in /  1026.3hPa NE 0.9mph /  1.4km/h 1.0mph /  1.6km/h 15% 0.00in /  0mm 0.0 W/m2
18:00 68.4 °F /  20.2 °C 20.5 °F /  -6.4 °C 30.31in /  1026.3hPa Calm   1.0mph /  1.6km/h 16% 0.00in /  0mm 0.0 W/m2
18:06 67.5 °F /  19.7 °C 19.8 °F /  -6.8 °C 30.31in /  1026.3hPa Calm   2.0mph /  3.2km/h 16% 0.00in /  0mm 0.0 W/m2
18:12 66.7 °F /  19.3 °C 19.0 °F /  -7.2 °C 30.31in /  1026.3hPa Calm   1.0mph /  1.6km/h 16% 0.00in /  0mm 0.0 W/m2
18:18 66.0 °F /  18.9 °C 19.9 °F /  -6.7 °C 30.32in /  1026.6hPa Calm     17% 0.00in /  0mm 0.0 W/m2
18:24 65.5 °F /  18.6 °C 20.8 °F /  -6.2 °C 30.32in /  1026.6hPa Calm     18% 0.00in /  0mm 0.0 W/m2
18:31 64.8 °F /  18.2 °C 20.3 °F /  -6.5 °C 30.32in /  1026.6hPa Calm   1.0mph /  1.6km/h 18% 0.00in /  0mm 0.0 W/m2
18:37 64.0 °F /  17.8 °C 19.6 °F /  -6.9 °C 30.32in /  1026.6hPa Calm   1.0mph /  1.6km/h 18% 0.00in /  0mm 0.0 W/m2
18:43 63.3 °F /  17.4 °C 20.3 °F /  -6.5 °C 30.33in /  1027hPa Calm     19% 0.00in /  0mm 0.0 W/m2
18:49 62.4 °F /  16.9 °C 20.8 °F /  -6.2 °C 30.33in /  1027hPa Calm     20% 0.00in /  0mm 0.0 W/m2
18:55 61.9 °F /  16.6 °C 20.3 °F /  -6.5 °C 30.33in /  1027hPa Calm     20% 0.00in /  0mm 0.0 W/m2
19:01 61.2 °F /  16.2 °C 19.8 °F /  -6.8 °C 30.33in /  1027hPa Calm     20% 0.00in /  0mm 0.0 W/m2
19:07 60.4 °F /  15.8 °C 20.3 °F /  -6.5 °C 30.33in /  1027hPa Calm     21% 0.00in /  0mm 0.0 W/m2
19:13 59.7 °F /  15.4 °C 19.8 °F /  -6.8 °C 30.33in /  1027hPa Calm     21% 0.00in /  0mm 0.0 W/m2
19:19 59.2 °F /  15.1 °C 20.3 °F /  -6.5 °C 30.33in /  1027hPa Calm     22% 0.00in /  0mm 0.0 W/m2
19:26 58.6 °F /  14.8 °C 21.0 °F /  -6.1 °C 30.33in /  1027hPa Calm     23% 0.00in /  0mm 0.0 W/m2
19:32 57.9 °F /  14.4 °C 19.2 °F /  -7.1 °C 30.33in /  1027hPa Calm     22% 0.00in /  0mm 0.0 W/m2
19:38 57.6 °F /  14.2 °C 19.9 °F /  -6.7 °C 30.33in /  1027hPa Calm   1.0mph /  1.6km/h 23% 0.00in /  0mm 0.0 W/m2
19:44 57.0 °F /  13.9 °C 19.6 °F /  -6.9 °C 30.34in /  1027.3hPa Calm     23% 0.00in /  0mm 0.0 W/m2
19:50 56.7 °F /  13.7 °C 19.2 °F /  -7.1 °C 30.34in /  1027.3hPa Calm   2.0mph /  3.2km/h 23% 0.00in /  0mm 0.0 W/m2
19:56 56.3 °F /  13.5 °C 19.0 °F /  -7.2 °C 30.34in /  1027.3hPa Calm   1.0mph /  1.6km/h 23% 0.00in /  0mm 0.0 W/m2
20:02 56.1 °F /  13.4 °C 18.9 °F /  -7.3 °C 30.34in /  1027.3hPa Calm   1.0mph /  1.6km/h 23% 0.00in /  0mm 0.0 W/m2
20:09 55.9 °F /  13.3 °C 18.7 °F /  -7.4 °C 30.34in /  1027.3hPa Calm     23% 0.00in /  0mm 0.0 W/m2
20:15 55.6 °F /  13.1 °C 18.3 °F /  -7.6 °C 30.35in /  1027.7hPa Calm   3.0mph /  4.8km/h 23% 0.00in /  0mm 0.0 W/m2
20:21 55.2 °F /  12.9 °C 18.1 °F /  -7.7 °C 30.35in /  1027.7hPa Calm     23% 0.00in /  0mm 0.0 W/m2
20:27 55.2 °F /  12.9 °C 19.0 °F /  -7.2 °C 30.35in /  1027.7hPa Calm   1.0mph /  1.6km/h 24% 0.00in /  0mm 0.0 W/m2
20:33 55.0 °F /  12.8 °C 18.9 °F /  -7.3 °C 30.35in /  1027.7hPa Calm     24% 0.00in /  0mm 0.0 W/m2
20:39 55.0 °F /  12.8 °C 18.9 °F /  -7.3 °C 30.35in /  1027.7hPa Calm   1.0mph /  1.6km/h 24% 0.00in /  0mm 0.0 W/m2
20:45 55.0 °F /  12.8 °C 18.9 °F /  -7.3 °C 30.35in /  1027.7hPa Calm   2.0mph /  3.2km/h 24% 0.00in /  0mm 0.0 W/m2
20:52 54.9 °F /  12.7 °C 18.7 °F /  -7.4 °C 30.35in /  1027.7hPa Calm   1.0mph /  1.6km/h 24% 0.00in /  0mm 0.0 W/m2
20:58 54.9 °F /  12.7 °C 18.7 °F /  -7.4 °C 30.35in /  1027.7hPa Calm     24% 0.00in /  0mm 0.0 W/m2
21:04 54.9 °F /  12.7 °C 18.7 °F /  -7.4 °C 30.35in /  1027.7hPa Calm   1.0mph /  1.6km/h 24% 0.00in /  0mm 0.0 W/m2
21:10 54.7 °F /  12.6 °C 18.5 °F /  -7.5 °C 30.35in /  1027.7hPa Calm   1.0mph /  1.6km/h 24% 0.00in /  0mm 0.0 W/m2
21:16 54.3 °F /  12.4 °C 18.3 °F /  -7.6 °C 30.35in /  1027.7hPa Calm   1.0mph /  1.6km/h 24% 0.00in /  0mm 0.0 W/m2
21:22 54.0 °F /  12.2 °C 18.9 °F /  -7.3 °C 30.35in /  1027.7hPa Calm     25% 0.00in /  0mm 0.0 W/m2
21:28 53.4 °F /  11.9 °C 18.5 °F /  -7.5 °C 30.35in /  1027.7hPa SSW 0.9mph /  1.4km/h 3.0mph /  4.8km/h 25% 0.00in /  0mm 0.0 W/m2
21:35 53.1 °F /  11.7 °C 19.0 °F /  -7.2 °C 30.35in /  1027.7hPa Calm   1.0mph /  1.6km/h 26% 0.00in /  0mm 0.0 W/m2
21:41 52.5 °F /  11.4 °C 18.7 °F /  -7.4 °C 30.35in /  1027.7hPa Calm   1.0mph /  1.6km/h 26% 0.00in /  0mm 0.0 W/m2
21:53 52.3 °F /  11.3 °C 18.5 °F /  -7.5 °C 30.35in /  1027.7hPa ESE 0.9mph /  1.4km/h 4.0mph /  6.4km/h 26% 0.00in /  0mm 0.0 W/m2
21:59 52.5 °F /  11.4 °C 18.7 °F /  -7.4 °C 30.35in /  1027.7hPa Calm   3.0mph /  4.8km/h 26% 0.00in /  0mm 0.0 W/m2
22:05 52.5 °F /  11.4 °C 18.7 °F /  -7.4 °C 30.35in /  1027.7hPa ESE 0.9mph /  1.4km/h 1.0mph /  1.6km/h 26% 0.00in /  0mm 0.0 W/m2
22:11 52.7 °F /  11.5 °C 18.7 °F /  -7.4 °C 30.35in /  1027.7hPa ESE 3.0mph /  4.8km/h 3.0mph /  4.8km/h 26% 0.00in /  0mm 0.0 W/m2
22:17 52.9 °F /  11.6 °C 18.9 °F /  -7.3 °C 30.35in /  1027.7hPa Calm   1.0mph /  1.6km/h 26% 0.00in /  0mm 0.0 W/m2
22:24 52.7 °F /  11.5 °C 18.7 °F /  -7.4 °C 30.35in /  1027.7hPa Calm   2.0mph /  3.2km/h 26% 0.00in /  0mm 0.0 W/m2
22:30 52.5 °F /  11.4 °C 18.7 °F /  -7.4 °C 30.35in /  1027.7hPa ENE 0.9mph /  1.4km/h 1.0mph /  1.6km/h 26% 0.00in /  0mm 0.0 W/m2
22:36 52.2 °F /  11.2 °C 18.3 °F /  -7.6 °C 30.35in /  1027.7hPa ESE 0.9mph /  1.4km/h 4.0mph /  6.4km/h 26% 0.00in /  0mm 0.0 W/m2
22:42 52.2 °F /  11.2 °C 18.3 °F /  -7.6 °C 30.35in /  1027.7hPa Calm   7.0mph /  11.3km/h 26% 0.00in /  0mm 0.0 W/m2
22:48 52.2 °F /  11.2 °C 18.3 °F /  -7.6 °C 30.35in /  1027.7hPa Calm   3.0mph /  4.8km/h 26% 0.00in /  0mm 0.0 W/m2
22:54 52.0 °F /  11.1 °C 18.1 °F /  -7.7 °C 30.35in /  1027.7hPa Calm   4.0mph /  6.4km/h 26% 0.00in /  0mm 0.0 W/m2
23:00 52.0 °F /  11.1 °C 19.0 °F /  -7.2 °C 30.35in /  1027.7hPa NE 2.0mph /  3.2km/h 3.0mph /  4.8km/h 27% 0.00in /  0mm 0.0 W/m2
23:06 52.0 °F /  11.1 °C 18.1 °F /  -7.7 °C 30.35in /  1027.7hPa Calm   2.0mph /  3.2km/h 26% 0.00in /  0mm 0.0 W/m2
23:12 52.0 °F /  11.1 °C 18.1 °F /  -7.7 °C 30.35in /  1027.7hPa ENE 0.9mph /  1.4km/h 2.0mph /  3.2km/h 26% 0.00in /  0mm 0.0 W/m2
23:18 52.0 °F /  11.1 °C 19.0 °F /  -7.2 °C 30.34in /  1027.3hPa East 0.9mph /  1.4km/h 4.0mph /  6.4km/h 27% 0.00in /  0mm 0.0 W/m2
23:24 52.0 °F /  11.1 °C 18.1 °F /  -7.7 °C 30.34in /  1027.3hPa Calm   4.0mph /  6.4km/h 26% 0.00in /  0mm 0.0 W/m2
23:31 52.0 °F /  11.1 °C 18.1 °F /  -7.7 °C 30.34in /  1027.3hPa Calm   3.0mph /  4.8km/h 26% 0.00in /  0mm 0.0 W/m2
23:37 52.0 °F /  11.1 °C 19.0 °F /  -7.2 °C 30.35in /  1027.7hPa SE 2.9mph /  4.7km/h 3.0mph /  4.8km/h 27% 0.00in /  0mm 0.0 W/m2
23:43 52.2 °F /  11.2 °C 18.3 °F /  -7.6 °C 30.35in /  1027.7hPa ENE 0.9mph /  1.4km/h 2.0mph /  3.2km/h 26% 0.00in /  0mm 0.0 W/m2
23:49 52.3 °F /  11.3 °C 18.5 °F /  -7.5 °C 30.35in /  1027.7hPa Calm   3.0mph /  4.8km/h 26% 0.00in /  0mm 0.0 W/m2
23:55 52.2 °F /  11.2 °C 18.3 °F /  -7.6 °C 30.35in /  1027.7hPa ESE 0.9mph /  1.4km/h 3.0mph /  4.8km/h 26% 0.00in /  0mm 0.0 W/m2
Olympia, Windhoek, Namibia
Compliments of Weather Underground - 3 mb